Terminal Aerodrome Forecast
Issued by NWS

Home | Current Version | Previous Version | Text Only | Print | Product List | Glossary On
Versions: 1 2 3 4 5 6 7 8 9 10 11 12 13 14 15 16 17 18
000
FTUS41 KBGM 252353 AAC
TAFELM
TAF AMD
KELM 252353Z 2600/2624 25004KT P6SM SCT150
      TEMPO 2603/2606 3SM BR
     FM260600 VRB03KT 2SM BR SKC
      TEMPO 2608/2612 1/2SM FG VV002
     FM261300 30009G16KT P6SM FEW250=

USA.gov is the U.S. government's official web portal to all federal, state and local government web resources and services.